createdAt,value
2022-11-19T00:01:15.122Z,99929.31
2022-11-19T00:06:25.483Z,99929.00
2022-11-19T00:08:51.822Z,99931.81
2022-11-19T00:11:18.197Z,99931.41
2022-11-19T00:13:44.501Z,99932.16
2022-11-19T00:16:10.802Z,99934.97
2022-11-19T00:21:31.080Z,99931.31
2022-11-19T00:24:00.222Z,99942.44
2022-11-19T00:26:26.534Z,99940.13
2022-11-19T00:28:52.858Z,99931.41
2022-11-19T00:31:19.190Z,99940.53
2022-11-19T00:36:29.624Z,99946.09
2022-11-19T00:38:55.933Z,99950.03
2022-11-19T00:41:22.332Z,99950.47
2022-11-19T00:43:49.001Z,99947.28
2022-11-19T00:46:16.513Z,99941.31
2022-11-19T00:51:36.681Z,99938.59
2022-11-19T00:54:03.015Z,99942.13
2022-11-19T00:56:29.333Z,99939.81
2022-11-19T00:58:55.699Z,99941.34
2022-11-19T01:01:22.017Z,99950.88
2022-11-19T01:03:48.339Z,99951.66
2022-11-19T01:06:18.792Z,99950.06
2022-11-19T01:08:45.554Z,99959.66
2022-11-19T01:11:11.863Z,99961.59
2022-11-19T01:13:38.172Z,99964.00
2022-11-19T01:16:04.501Z,99963.59
2022-11-19T01:18:30.823Z,99964.78
2022-11-19T01:20:57.227Z,99964.38
2022-11-19T01:23:23.513Z,99972.72
2022-11-19T01:25:49.849Z,99975.09
2022-11-19T01:28:16.169Z,99981.06
2022-11-19T01:30:42.497Z,99975.91
2022-11-19T01:33:08.836Z,99975.09
2022-11-19T01:35:37.948Z,99980.25
2022-11-19T01:38:04.316Z,99970.78
2022-11-19T01:40:30.611Z,99971.56
2022-11-19T01:42:56.912Z,99976.69
2022-11-19T01:45:23.214Z,99982.28
2022-11-19T01:47:49.516Z,99975.94
2022-11-19T01:50:15.930Z,99975.53
2022-11-19T01:52:42.237Z,99971.06
2022-11-19T01:55:08.554Z,99967.97
2022-11-19T01:57:34.880Z,99971.16
2022-11-19T02:00:01.216Z,99972.34
2022-11-19T02:02:27.520Z,99968.38
2022-11-19T02:04:53.853Z,99973.13
2022-11-19T02:07:20.216Z,99985.84
2022-11-19T02:09:46.547Z,99971.16
2022-11-19T02:12:12.836Z,99980.28
2022-11-19T02:14:39.175Z,99973.91
2022-11-19T02:17:05.502Z,99978.69
2022-11-19T02:19:31.829Z,99981.00
2022-11-19T02:24:41.965Z,99973.94
2022-11-19T02:27:08.285Z,99975.91
2022-11-19T02:29:34.601Z,99974.75
2022-11-19T02:32:00.888Z,99975.03
2022-11-19T02:34:27.216Z,99970.38
2022-11-19T02:39:37.401Z,99979.47
2022-11-19T02:42:06.529Z,99978.28
2022-11-19T02:44:32.880Z,99974.72
2022-11-19T02:46:59.182Z,99974.28
2022-11-19T02:49:25.486Z,99971.16
2022-11-19T02:54:46.037Z,99971.53
2022-11-19T02:57:12.338Z,99962.41
2022-11-19T02:59:38.641Z,99966.00
2022-11-19T03:02:04.991Z,99981.06
2022-11-19T03:04:31.306Z,99973.91
2022-11-19T03:09:51.637Z,99987.03
2022-11-19T03:12:17.991Z,99993.41
2022-11-19T03:14:44.295Z,99998.59
2022-11-19T03:17:10.604Z,99994.59
2022-11-19T03:19:36.914Z,100003.34
2022-11-19T03:24:57.124Z,100001.34
2022-11-19T03:27:23.473Z,100000.50
2022-11-19T03:29:49.806Z,100004.53
2022-11-19T03:32:16.124Z,100008.50
2022-11-19T03:34:42.439Z,100015.19
2022-11-19T03:39:52.520Z,100012.81
2022-11-19T03:42:18.832Z,100023.94
2022-11-19T03:44:45.180Z,100019.56
2022-11-19T03:47:11.483Z,100012.50
2022-11-19T03:49:37.837Z,100023.97
2022-11-19T03:54:47.882Z,100029.53
2022-11-19T03:57:14.266Z,100027.94
2022-11-19T03:59:40.647Z,100035.50
2022-11-19T04:02:06.993Z,100033.47
2022-11-19T04:04:33.288Z,100040.66
2022-11-19T04:09:53.080Z,100041.44
2022-11-19T04:12:19.503Z,100046.63
2022-11-19T04:14:45.804Z,100056.53
2022-11-19T04:17:12.137Z,100044.25
2022-11-19T04:19:38.443Z,100043.84
2022-11-19T04:24:48.534Z,100047.81
2022-11-19T04:27:14.873Z,100047.41
2022-11-19T04:29:41.259Z,100053.78
2022-11-19T04:32:07.584Z,100050.56
2022-11-19T04:34:33.886Z,100055.34
2022-11-19T04:37:00.259Z,100049.81
2022-11-19T04:39:26.575Z,100047.41
2022-11-19T04:41:52.872Z,100051.78
2022-11-19T04:44:19.205Z,100053.00
2022-11-19T04:46:45.505Z,100063.69
2022-11-19T04:49:11.883Z,100063.72
2022-11-19T04:51:38.194Z,100062.88
2022-11-19T04:54:04.544Z,100061.25
2022-11-19T04:56:30.865Z,100063.69
2022-11-19T04:58:57.163Z,100059.69
2022-11-19T05:01:23.508Z,100064.47
2022-11-19T05:03:49.874Z,100071.16
2022-11-19T05:06:16.250Z,100069.63
2022-11-19T05:08:42.579Z,100078.34
2022-11-19T05:11:08.891Z,100076.78
2022-11-19T05:13:35.226Z,100083.94
2022-11-19T05:16:01.547Z,100072.47
2022-11-19T05:18:27.900Z,100065.84
2022-11-19T05:20:54.226Z,100064.53
2022-11-19T05:23:21.451Z,100075.66
2022-11-19T05:25:48.810Z,100067.94
2022-11-19T05:28:16.147Z,100079.72
2022-11-19T05:30:42.570Z,100087.47
2022-11-19T05:33:10.894Z,100069.16
2022-11-19T05:35:40.077Z,100066.09
2022-11-19T05:38:06.498Z,100071.00
2022-11-19T05:40:32.893Z,100077.22
2022-11-19T05:42:59.296Z,100082.28
2022-11-19T05:45:25.718Z,100078.28
2022-11-19T05:47:52.951Z,100077.81
2022-11-19T05:50:20.142Z,100090.88
2022-11-19T05:52:46.483Z,100092.06
2022-11-19T05:57:56.527Z,100102.38
2022-11-19T06:00:22.850Z,100099.56
2022-11-19T06:02:49.207Z,100108.28
2022-11-19T06:05:15.599Z,100105.44
2022-11-19T06:07:41.939Z,100112.56
2022-11-19T06:13:02.380Z,100116.94
2022-11-19T06:15:28.702Z,100125.72
2022-11-19T06:17:55.026Z,100131.25
2022-11-19T06:20:21.404Z,100132.47
2022-11-19T06:22:47.724Z,100132.09
2022-11-19T06:27:58.138Z,100136.47
2022-11-19T06:30:24.482Z,100144.41
2022-11-19T06:32:50.792Z,100147.94
2022-11-19T06:35:19.900Z,100150.75
2022-11-19T06:37:47.121Z,100165.84
2022-11-19T06:43:10.474Z,100171.00
2022-11-19T06:45:36.896Z,100170.56
2022-11-19T06:48:03.340Z,100172.16
2022-11-19T06:50:29.858Z,100175.69
2022-11-19T06:52:59.028Z,100175.69
2022-11-19T06:58:11.508Z,100186.75
2022-11-19T07:00:38.757Z,100179.25
2022-11-19T07:03:05.192Z,100182.00
2022-11-19T07:05:33.446Z,100183.13
2022-11-19T07:08:03.402Z,100187.53
2022-11-19T07:13:25.938Z,100189.13
2022-11-19T07:15:53.232Z,100183.53
2022-11-19T07:18:19.677Z,100186.31
2022-11-19T07:20:47.944Z,100190.31
2022-11-19T07:23:14.421Z,100188.28
2022-11-19T07:28:25.783Z,100194.69
2022-11-19T07:30:53.340Z,100202.22
2022-11-19T07:33:19.805Z,100208.16
2022-11-19T07:35:46.226Z,100207.38
2022-11-19T07:38:12.628Z,100201.81
2022-11-19T07:43:35.262Z,100208.19
2022-11-19T07:46:01.998Z,100208.97
2022-11-19T07:48:28.685Z,100205.78
2022-11-19T07:50:56.679Z,100208.13
2022-11-19T07:53:23.486Z,100211.31
2022-11-19T07:58:45.969Z,100217.69
2022-11-19T08:01:12.802Z,100221.69
2022-11-19T08:03:39.514Z,100217.34
2022-11-19T08:06:07.155Z,100220.59
2022-11-19T08:08:33.889Z,100210.72
2022-11-19T08:13:45.326Z,100215.13
2022-11-19T08:16:11.977Z,100223.50
2022-11-19T08:18:39.698Z,100215.97
2022-11-19T08:21:06.359Z,100215.63
2022-11-19T08:23:33.091Z,100221.19
2022-11-19T08:28:54.653Z,100219.59
2022-11-19T08:31:21.443Z,100225.19
2022-11-19T08:33:49.001Z,100223.63
2022-11-19T08:36:15.727Z,100230.72
2022-11-19T08:38:42.464Z,100232.72
2022-11-19T08:43:54.262Z,100227.63
2022-11-19T08:46:20.870Z,100238.72
2022-11-19T08:48:47.728Z,100237.53
2022-11-19T08:51:14.348Z,100237.59
2022-11-19T08:53:41.059Z,100239.94
2022-11-19T08:59:03.696Z,100244.31
2022-11-19T09:01:31.397Z,100240.28
2022-11-19T09:03:58.790Z,100237.88
2022-11-19T09:06:25.247Z,100237.53
2022-11-19T09:08:51.663Z,100245.47
2022-11-19T09:14:05.446Z,100234.34
2022-11-19T09:16:33.740Z,100235.47
2022-11-19T09:19:03.075Z,100238.63
2022-11-19T09:21:29.469Z,100247.38
2022-11-19T09:23:56.697Z,100247.78
2022-11-19T09:29:19.978Z,100249.75
2022-11-19T09:31:46.380Z,100244.19
2022-11-19T09:34:12.815Z,100260.34
2022-11-19T09:36:40.214Z,100280.00
2022-11-19T09:39:06.672Z,100272.34
2022-11-19T09:44:28.004Z,100246.47
2022-11-19T09:46:54.491Z,100240.16
2022-11-19T09:49:21.731Z,100236.59
2022-11-19T09:51:48.142Z,100229.06
2022-11-19T09:54:15.430Z,100237.34
2022-11-19T09:59:26.864Z,100244.03
2022-11-19T10:01:53.280Z,100236.91
2022-11-19T10:04:19.991Z,100240.47
2022-11-19T10:06:46.542Z,100236.88
2022-11-19T10:09:14.852Z,100235.66
2022-11-19T10:14:39.043Z,100237.59
2022-11-19T10:17:05.437Z,100249.13
2022-11-19T10:19:31.957Z,100240.78
2022-11-19T10:21:59.206Z,100238.75
2022-11-19T10:24:25.676Z,100237.16
2022-11-19T10:26:53.954Z,100235.56
2022-11-19T10:29:20.612Z,100229.53
2022-11-19T10:31:49.979Z,100233.91
2022-11-19T10:34:19.156Z,100241.44
2022-11-19T10:36:45.641Z,100241.81
2022-11-19T10:39:13.955Z,100234.72
2022-11-19T10:41:43.864Z,100237.06
2022-11-19T10:44:11.141Z,100241.03
2022-11-19T10:46:37.559Z,100235.78
2022-11-19T10:49:04.009Z,100241.31
2022-11-19T10:51:30.454Z,100243.97
2022-11-19T10:53:56.925Z,100243.34
2022-11-19T10:56:23.350Z,100238.09
2022-11-19T10:58:49.781Z,100254.28
2022-11-19T11:01:16.365Z,100254.25
2022-11-19T11:03:44.729Z,100259.78
2022-11-19T11:06:12.002Z,100262.53
2022-11-19T11:08:39.246Z,100263.72
2022-11-19T11:11:07.563Z,100256.13
2022-11-19T11:13:35.874Z,100254.94
2022-11-19T11:16:02.353Z,100252.13
2022-11-19T11:18:30.645Z,100249.00
2022-11-19T11:20:57.036Z,100262.88
2022-11-19T11:23:24.290Z,100262.88
2022-11-19T11:25:52.623Z,100262.06
2022-11-19T11:28:19.114Z,100264.84
2022-11-19T11:30:45.557Z,100261.28
2022-11-19T11:33:14.150Z,100264.84
2022-11-19T11:35:42.429Z,100270.41
2022-11-19T11:38:09.635Z,100270.41
2022-11-19T11:40:37.931Z,100268.81
2022-11-19T11:43:06.243Z,100271.97
2022-11-19T11:45:32.683Z,100272.78
2022-11-19T11:48:00.942Z,100269.59
2022-11-19T11:50:27.355Z,100262.47
2022-11-19T11:52:53.755Z,100264.44
2022-11-19T11:55:20.133Z,100270.41
2022-11-19T11:57:48.411Z,100266.03
2022-11-19T12:02:59.335Z,100270.78
2022-11-19T12:05:25.781Z,100276.34
2022-11-19T12:07:52.261Z,100272.78
2022-11-19T12:10:20.562Z,100279.13
2022-11-19T12:12:47.032Z,100270.78
2022-11-19T12:17:58.141Z,100271.97
2022-11-19T12:20:25.390Z,100269.97
2022-11-19T12:22:51.802Z,100269.97
2022-11-19T12:25:19.081Z,100264.81
2022-11-19T12:27:46.563Z,100272.75
2022-11-19T12:32:58.915Z,100281.47
2022-11-19T12:35:26.152Z,100284.25
2022-11-19T12:37:53.442Z,100291.41
2022-11-19T12:40:20.787Z,100296.16
2022-11-19T12:42:48.076Z,100300.91
2022-11-19T12:48:09.341Z,100302.53
2022-11-19T12:50:35.784Z,100310.47
2022-11-19T12:53:03.079Z,100305.69
2022-11-19T12:55:30.363Z,100300.91
2022-11-19T12:57:56.781Z,100303.31
2022-11-19T13:03:17.387Z,100306.09
2022-11-19T13:05:43.817Z,100309.69
2022-11-19T13:08:11.087Z,100307.69
2022-11-19T13:10:38.392Z,100307.28
2022-11-19T13:13:05.672Z,100297.38
2022-11-19T13:18:16.987Z,100297.00
2022-11-19T13:20:44.229Z,100302.94
2022-11-19T13:23:10.677Z,100300.94
2022-11-19T13:25:37.093Z,100303.34
2022-11-19T13:28:04.385Z,100307.31
2022-11-19T13:33:15.538Z,100315.63
2022-11-19T13:35:42.825Z,100310.91
2022-11-19T13:38:10.206Z,100315.63
2022-11-19T13:40:36.686Z,100322.41
2022-11-19T13:43:30.614Z,100322.41
2022-11-19T13:48:44.991Z,100328.38
2022-11-19T13:51:12.331Z,100332.34
2022-11-19T13:53:39.630Z,100334.72
2022-11-19T13:56:06.873Z,100322.41
2022-11-19T13:58:33.350Z,100331.94
2022-11-19T14:03:54.349Z,100339.50
2022-11-19T14:06:21.618Z,100339.50
2022-11-19T14:08:48.868Z,100343.84
2022-11-19T14:11:15.272Z,100350.59
2022-11-19T14:13:41.780Z,100350.19
2022-11-19T14:18:54.882Z,100351.78
2022-11-19T14:21:21.468Z,100351.78
2022-11-19T14:23:47.968Z,100354.56
2022-11-19T14:26:14.365Z,100352.16
2022-11-19T14:28:40.773Z,100347.41
2022-11-19T14:34:02.595Z,100357.31
2022-11-19T14:36:29.033Z,100353.75
2022-11-19T14:38:56.351Z,100354.53
2022-11-19T14:41:24.645Z,100347.00
2022-11-19T14:43:51.065Z,100341.84
2022-11-19T14:49:12.542Z,100345.41
2022-11-19T14:51:39.055Z,100347.00
2022-11-19T14:54:06.321Z,100348.97
2022-11-19T14:56:33.560Z,100360.09
2022-11-19T14:59:00.842Z,100351.75
2022-11-19T15:04:12.850Z,100348.97
2022-11-19T15:06:40.088Z,100345.41
2022-11-19T15:09:07.340Z,100339.06
2022-11-19T15:11:33.761Z,100344.63
2022-11-19T15:14:00.309Z,100341.03
2022-11-19T15:19:12.392Z,100336.28
2022-11-19T15:21:38.805Z,100335.88
2022-11-19T15:24:06.084Z,100337.47
2022-11-19T15:26:33.296Z,100338.66
2022-11-19T15:28:59.767Z,100339.84
2022-11-19T15:34:21.022Z,100341.44
2022-11-19T15:36:47.508Z,100342.22
2022-11-19T15:39:14.749Z,100341.03
2022-11-19T15:41:43.401Z,100347.38
2022-11-19T15:44:13.618Z,100342.63
2022-11-19T15:49:24.888Z,100343.00
2022-11-19T15:51:51.549Z,100349.38
2022-11-19T15:54:18.818Z,100344.22
2022-11-19T15:56:46.074Z,100356.09
2022-11-19T15:59:13.319Z,100352.56
2022-11-19T16:04:24.489Z,100354.50
2022-11-19T16:06:51.800Z,100364.84
2022-11-19T16:09:18.538Z,100367.63
2022-11-19T16:11:45.916Z,100369.22
2022-11-19T16:14:14.247Z,100371.19
2022-11-19T16:19:36.134Z,100369.63
2022-11-19T16:22:03.441Z,100376.38
2022-11-19T16:24:32.144Z,100375.19
2022-11-19T16:26:59.874Z,100368.03
2022-11-19T16:29:26.404Z,100380.34
2022-11-19T16:34:49.013Z,100387.88
2022-11-19T16:37:17.308Z,100384.31
2022-11-19T16:39:48.370Z,100384.31
2022-11-19T16:42:16.091Z,100381.16
2022-11-19T16:44:44.435Z,100385.13
2022-11-19T16:50:06.081Z,100384.34
2022-11-19T16:52:32.671Z,100396.63
2022-11-19T16:54:59.117Z,100400.22
2022-11-19T16:57:25.982Z,100399.41
2022-11-19T16:59:55.188Z,100391.06
2022-11-19T17:05:07.482Z,100381.19
2022-11-19T17:07:37.462Z,100376.78
2022-11-19T17:10:04.068Z,100375.22
2022-11-19T17:12:32.365Z,100374.41
2022-11-19T17:14:58.825Z,100380.78
2022-11-19T17:20:10.281Z,100367.66
2022-11-19T17:22:36.705Z,100372.03
2022-11-19T17:25:03.270Z,100376.81
2022-11-19T17:27:31.594Z,100371.63
2022-11-19T17:29:58.079Z,100394.66
2022-11-19T17:35:22.043Z,100406.56
2022-11-19T17:37:48.618Z,100405.38
2022-11-19T17:40:15.035Z,100406.16
2022-11-19T17:42:41.529Z,100404.19
2022-11-19T17:45:11.205Z,100401.41
2022-11-19T17:50:25.466Z,100389.09
2022-11-19T17:52:51.927Z,100393.06
2022-11-19T17:55:18.427Z,100397.44
2022-11-19T17:57:44.832Z,100394.66
2022-11-19T18:00:13.143Z,100397.81
2022-11-19T18:05:23.506Z,100391.06
2022-11-19T18:07:49.989Z,100397.03
2022-11-19T18:10:17.286Z,100394.25
2022-11-19T18:12:44.572Z,100411.72
2022-11-19T18:15:11.014Z,100406.94
2022-11-19T18:20:35.630Z,100416.06
2022-11-19T18:23:03.930Z,100421.63
2022-11-19T18:25:33.875Z,100418.06
2022-11-19T18:28:00.413Z,100415.28
2022-11-19T18:30:26.878Z,100410.50
2022-11-19T18:35:42.922Z,100415.28
2022-11-19T18:38:10.234Z,100425.63
2022-11-19T18:40:38.540Z,100428.00
2022-11-19T18:43:06.820Z,100422.44
2022-11-19T18:45:35.282Z,100431.56
2022-11-19T18:50:46.162Z,100437.91
2022-11-19T18:53:12.785Z,100441.91
2022-11-19T18:55:39.248Z,100438.72
2022-11-19T18:58:09.198Z,100441.91
2022-11-19T19:00:35.685Z,100430.78
2022-11-19T19:03:04.001Z,100435.13
2022-11-19T19:05:32.322Z,100432.34
2022-11-19T19:07:58.890Z,100437.13
2022-11-19T19:10:27.193Z,100426.00
2022-11-19T19:12:53.625Z,100431.56
2022-11-19T19:15:20.084Z,100426.00
2022-11-19T19:17:50.005Z,100426.78
2022-11-19T19:20:16.509Z,100434.34
2022-11-19T19:22:42.947Z,100438.72
2022-11-19T19:25:11.270Z,100439.91
2022-11-19T19:27:39.629Z,100445.81
2022-11-19T19:30:06.168Z,100435.88
2022-11-19T19:32:32.677Z,100440.22
2022-11-19T19:35:01.869Z,100447.78
2022-11-19T19:37:28.604Z,100446.97
2022-11-19T19:39:57.861Z,100447.75
2022-11-19T19:42:24.288Z,100450.16
2022-11-19T19:44:50.715Z,100452.53
2022-11-19T19:47:17.118Z,100449.75
2022-11-19T19:49:43.681Z,100456.50
2022-11-19T19:52:10.155Z,100461.66
2022-11-19T19:54:36.556Z,100458.47
2022-11-19T19:57:05.227Z,100456.09
2022-11-19T19:59:32.467Z,100458.09
2022-11-19T20:01:59.741Z,100458.47
2022-11-19T20:04:26.087Z,100454.50
2022-11-19T20:06:54.070Z,100445.75
2022-11-19T20:09:20.738Z,100446.94
2022-11-19T20:11:47.185Z,100447.34
2022-11-19T20:14:13.557Z,100448.16
2022-11-19T20:16:40.047Z,100455.69
2022-11-19T20:19:07.282Z,100460.06
2022-11-19T20:21:33.797Z,100454.91
2022-11-19T20:24:07.182Z,100452.13
2022-11-19T20:26:36.889Z,100443.00
2022-11-19T20:29:04.259Z,100443.38
2022-11-19T20:31:31.484Z,100435.03
2022-11-19T20:33:57.992Z,100435.03
2022-11-19T20:39:08.628Z,100437.44
2022-11-19T20:41:35.380Z,100446.19
2022-11-19T20:44:01.761Z,100450.13
2022-11-19T20:46:28.197Z,100450.94
2022-11-19T20:48:57.416Z,100441.72
2022-11-19T20:54:17.945Z,100439.72
2022-11-19T20:56:46.224Z,100445.50
2022-11-19T20:59:12.609Z,100435.81
2022-11-19T21:01:39.063Z,100435.66
2022-11-19T21:04:06.354Z,100436.97
2022-11-19T21:09:27.809Z,100429.94
2022-11-19T21:11:54.152Z,100422.66
2022-11-19T21:14:20.593Z,100429.44
2022-11-19T21:16:46.978Z,100432.19
2022-11-19T21:19:16.185Z,100433.59
2022-11-19T21:24:39.191Z,100428.09
2022-11-19T21:27:05.560Z,100433.66
2022-11-19T21:29:33.931Z,100433.72
2022-11-19T21:32:03.111Z,100436.44
2022-11-19T21:34:29.515Z,100434.03
2022-11-19T21:39:51.454Z,100444.47
2022-11-19T21:42:17.879Z,100440.03
2022-11-19T21:44:44.273Z,100442.44
2022-11-19T21:47:10.721Z,100450.31
2022-11-19T21:49:37.095Z,100447.56
2022-11-19T21:54:59.870Z,100439.22
2022-11-19T21:57:26.291Z,100440.47
2022-11-19T21:59:54.570Z,100434.16
2022-11-19T22:02:21.040Z,100440.09
2022-11-19T22:04:49.335Z,100439.31
2022-11-19T22:09:59.800Z,100435.34
2022-11-19T22:12:29.012Z,100442.53
2022-11-19T22:14:55.429Z,100442.94
2022-11-19T22:17:21.779Z,100440.13
2022-11-19T22:19:48.268Z,100432.16
2022-11-19T22:25:02.369Z,100428.63
2022-11-19T22:27:29.609Z,100429.78
2022-11-19T22:29:56.708Z,100426.22
2022-11-19T22:32:26.041Z,100427.38
2022-11-19T22:34:53.253Z,100423.78
2022-11-19T22:40:04.766Z,100427.81
2022-11-19T22:42:33.073Z,100429.78
2022-11-19T22:45:01.351Z,100430.19
2022-11-19T22:47:27.819Z,100434.16
2022-11-19T22:49:54.567Z,100427.84
2022-11-19T22:55:04.932Z,100435.38
2022-11-19T22:57:31.334Z,100431.00
2022-11-19T23:00:01.234Z,100431.00
2022-11-19T23:02:30.363Z,100433.38
2022-11-19T23:04:56.855Z,100428.22
2022-11-19T23:10:12.509Z,100426.25
2022-11-19T23:12:39.719Z,100426.66
2022-11-19T23:15:06.165Z,100420.72
2022-11-19T23:17:35.329Z,100412.38
2022-11-19T23:20:04.773Z,100410.38
2022-11-19T23:25:17.462Z,100410.75
2022-11-19T23:27:44.686Z,100413.53
2022-11-19T23:30:11.085Z,100411.59
2022-11-19T23:32:40.262Z,100400.84
2022-11-19T23:35:06.756Z,100400.44
2022-11-19T23:40:30.830Z,100406.00
2022-11-19T23:42:57.302Z,100402.44
2022-11-19T23:45:23.724Z,100407.59
2022-11-19T23:47:52.884Z,100404.81
2022-11-19T23:50:19.295Z,100404.81
2022-11-19T23:55:43.337Z,100409.59
2022-11-19T23:58:10.529Z,100412.38
